Terminal Aerodrome Forecast
Issued by NWS Tampa Bay Area, FL

Home | Current Version | Previous Version | Text Only | Print | Product List | Glossary On
Versions: 1 2 3 4 5 6 7 8 9 10 11 12
000
FTUS42 KTBW 190524
TAFFMY
TAF
KFMY 190524Z 1906/2006 11005KT P6SM FEW010
     FM191300 10011KT P6SM FEW035 SCT150
     FM200200 09007KT P6SM FEW020=

USA.gov is the U.S. government's official web portal to all federal, state and local government web resources and services.